Time;durP1;ratioP1;P1;durP2;ratioP2;P2;SDS_P1;SDS_P2;PMS_P1;PMS_P2;Temp;Humidity;BMP_temperature;BMP_pressure;BME280_temperature;BME280_humidity;BME280_pressure;Samples;Min_cycle;Max_cycle;Signal;HPM_P1;HPM_P2
2022/03/11 00:01:18;;;;;;;20.80;16.10;;;6.70;91.90;;;;;;4972871;28;20205;-75
2022/03/11 00:03:46;;;;;;;24.42;17.98;;;6.80;92.00;;;;;;4969263;28;20236;-75
2022/03/11 00:06:13;;;;;;;21.17;15.65;;;6.70;92.10;;;;;;4990949;28;20251;-75
2022/03/11 00:08:40;;;;;;;21.38;16.73;;;6.80;92.00;;;;;;4991128;28;20220;-76
2022/03/11 00:11:07;;;;;;;22.27;16.63;;;6.80;91.90;;;;;;4983366;28;20201;-75
2022/03/11 00:13:35;;;;;;;22.58;16.88;;;6.80;92.00;;;;;;4986817;28;20232;-76
2022/03/11 00:16:02;;;;;;;22.13;16.67;;;6.70;92.10;;;;;;4991905;28;21004;-75
2022/03/11 00:18:29;;;;;;;22.60;16.42;;;6.80;92.10;;;;;;4987094;28;20229;-76
2022/03/11 00:20:58;;;;;;;21.40;15.88;;;6.70;92.10;;;;;;4987233;28;20201;-76
2022/03/11 00:23:25;;;;;;;20.48;15.63;;;6.70;92.10;;;;;;4988387;28;20200;-75
2022/03/11 00:25:52;;;;;;;25.25;18.60;;;6.70;92.00;;;;;;4988383;28;20240;-75
2022/03/11 00:28:19;;;;;;;24.48;18.50;;;6.70;92.10;;;;;;4987093;28;20245;-75
2022/03/11 00:30:46;;;;;;;24.58;16.52;;;6.70;91.90;;;;;;4986693;28;20209;-75
2022/03/11 00:33:13;;;;;;;22.95;17.08;;;6.70;92.10;;;;;;4987984;28;20212;-74
2022/03/11 00:35:40;;;;;;;24.95;18.58;;;6.70;92.10;;;;;;4989449;28;20773;-76
2022/03/11 00:38:08;;;;;;;32.83;19.63;;;6.60;92.20;;;;;;4991403;28;20208;-76
2022/03/11 00:40:35;;;;;;;25.42;18.90;;;6.50;92.40;;;;;;5000832;28;20229;-75
2022/03/11 00:43:03;;;;;;;23.80;17.70;;;6.40;92.60;;;;;;4987029;28;20224;-75
2022/03/11 00:45:30;;;;;;;27.55;19.10;;;6.30;92.50;;;;;;4989455;28;20798;-75
2022/03/11 00:47:57;;;;;;;25.60;18.77;;;6.30;92.70;;;;;;4986960;28;20205;-75
2022/03/11 00:50:24;;;;;;;29.35;20.17;;;6.30;92.80;;;;;;4982307;28;20240;-76
2022/03/11 00:52:52;;;;;;;26.10;19.88;;;6.30;93.20;;;;;;4988486;28;20229;-75
2022/03/11 00:58:01;;;;;;;24.95;18.08;;;6.30;93.30;;;;;;4985554;28;20213;-78
2022/03/11 01:00:28;;;;;;;32.10;21.13;;;6.30;93.30;;;;;;4985625;28;20221;-75
2022/03/11 01:02:55;;;;;;;28.08;20.05;;;6.30;93.20;;;;;;4988740;28;20224;-75
2022/03/11 01:05:22;;;;;;;24.75;18.80;;;6.00;93.30;;;;;;4986663;28;20224;-75
2022/03/11 01:07:49;;;;;;;26.70;18.95;;;5.90;93.50;;;;;;5005121;28;20239;-79
2022/03/11 01:10:17;;;;;;;27.17;19.58;;;5.70;93.50;;;;;;5001271;28;20230;-74
2022/03/11 01:12:44;;;;;;;25.20;18.52;;;5.40;93.80;;;;;;5004028;28;20212;-79
2022/03/11 01:15:13;;;;;;;24.25;17.63;;;5.10;94.20;;;;;;5002993;28;20231;-75
2022/03/11 01:17:40;;;;;;;23.27;17.15;;;5.00;94.60;;;;;;5006131;28;20638;-76
2022/03/11 01:20:10;;;;;;;22.38;16.80;;;4.90;94.70;;;;;;5006896;28;20220;-74
2022/03/11 01:22:37;;;;;;;21.15;15.30;;;5.00;95.10;;;;;;5004664;28;20938;-76
2022/03/11 01:25:05;;;;;;;24.05;18.35;;;5.00;94.70;;;;;;5005634;28;20231;-75
2022/03/11 01:27:33;;;;;;;25.92;17.83;;;4.90;94.50;;;;;;5001681;28;20227;-76
2022/03/11 01:30:00;;;;;;;25.23;17.77;;;4.70;95.00;;;;;;4998350;28;20617;-78
2022/03/11 01:32:28;;;;;;;23.65;18.08;;;4.60;95.20;;;;;;5002808;28;20648;-75
2022/03/11 01:34:55;;;;;;;23.05;17.67;;;4.50;95.10;;;;;;5006298;28;20719;-73
2022/03/11 01:37:22;;;;;;;22.40;16.90;;;4.50;95.30;;;;;;5002998;28;20231;-77
2022/03/11 01:39:49;;;;;;;23.05;16.90;;;4.40;95.20;;;;;;5004139;28;20224;-76
2022/03/11 01:42:16;;;;;;;21.80;15.82;;;4.40;95.30;;;;;;5009609;28;20208;-74
2022/03/11 01:44:44;;;;;;;20.02;15.20;;;4.30;95.50;;;;;;5003976;28;20231;-73
2022/03/11 01:47:11;;;;;;;20.35;15.05;;;4.30;95.60;;;;;;5001696;28;20219;-75
2022/03/11 01:49:39;;;;;;;23.88;16.92;;;4.30;95.90;;;;;;4991421;28;20313;-72
2022/03/11 01:52:07;;;;;;;25.80;17.83;;;4.30;95.60;;;;;;4982664;28;20650;-74
2022/03/11 01:54:35;;;;;;;25.90;18.98;;;4.30;95.50;;;;;;4988269;28;20232;-72
2022/03/11 01:57:02;;;;;;;24.13;16.75;;;4.30;95.40;;;;;;4999784;28;20232;-76
2022/03/11 01:59:30;;;;;;;22.83;15.93;;;4.40;95.30;;;;;;5001344;28;20235;-73
2022/03/11 02:01:57;;;;;;;23.77;16.95;;;4.40;95.10;;;;;;5000834;28;20203;-76
2022/03/11 02:04:25;;;;;;;23.40;15.15;;;4.40;95.10;;;;;;5001285;28;20224;-73
2022/03/11 02:06:54;;;;;;;21.92;15.95;;;4.40;95.30;;;;;;5004068;28;20220;-72
2022/03/11 02:09:21;;;;;;;19.83;14.90;;;4.40;95.50;;;;;;5003921;28;20227;-74
2022/03/11 02:11:48;;;;;;;24.17;16.55;;;4.40;95.50;;;;;;5002859;28;20690;-74
2022/03/11 02:14:16;;;;;;;23.98;16.40;;;4.40;95.50;;;;;;5003120;28;20290;-73
2022/03/11 02:16:43;;;;;;;20.77;15.38;;;4.40;95.40;;;;;;5002322;28;20212;-72
2022/03/11 02:19:10;;;;;;;21.40;15.52;;;4.40;95.40;;;;;;5004115;28;20235;-72
2022/03/11 02:21:43;;;;;;;21.25;15.70;;;4.40;95.30;;;;;;5006759;28;20685;-74
2022/03/11 02:24:12;;;;;;;21.45;16.23;;;4.40;95.50;;;;;;4998809;28;20367;-76
2022/03/11 02:26:39;;;;;;;21.73;15.75;;;4.40;95.60;;;;;;4985665;28;20224;-72
2022/03/11 02:29:07;;;;;;;21.90;15.40;;;4.40;95.50;;;;;;4990830;28;20227;-74
2022/03/11 02:31:35;;;;;;;20.80;15.02;;;4.40;95.60;;;;;;5003394;28;20557;-75
2022/03/11 02:34:04;;;;;;;24.63;17.33;;;4.40;95.60;;;;;;5000624;28;20622;-75
2022/03/11 02:36:31;;;;;;;21.63;15.80;;;4.40;95.60;;;;;;5002213;28;20227;-71
2022/03/11 02:38:58;;;;;;;26.30;18.63;;;4.40;95.60;;;;;;5003104;28;20223;-72
2022/03/11 02:41:27;;;;;;;22.83;17.05;;;4.40;95.70;;;;;;5001127;28;20234;-72
2022/03/11 02:43:54;;;;;;;22.30;16.10;;;4.30;95.80;;;;;;4999368;28;20207;-74
2022/03/11 02:46:21;;;;;;;25.10;17.52;;;4.30;95.70;;;;;;5003652;28;20216;-74
2022/03/11 02:48:48;;;;;;;24.15;17.55;;;4.30;95.80;;;;;;4998674;28;20200;-73
2022/03/11 02:51:15;;;;;;;26.35;18.38;;;4.30;96.00;;;;;;4981876;28;20656;-73
2022/03/11 02:53:43;;;;;;;23.35;16.88;;;4.30;96.10;;;;;;4982072;28;20228;-73
2022/03/11 02:56:10;;;;;;;24.35;17.27;;;4.30;96.10;;;;;;4983698;28;20236;-73
2022/03/11 02:58:40;;;;;;;23.65;17.92;;;4.40;96.10;;;;;;4983692;28;20201;-76
2022/03/11 03:01:08;;;;;;;25.90;19.40;;;4.50;96.00;;;;;;5002771;28;20224;-72
2022/03/11 03:03:35;;;;;;;28.80;19.80;;;4.50;96.10;;;;;;4999750;28;20209;-73
2022/03/11 03:06:02;;;;;;;26.15;18.95;;;4.50;96.00;;;;;;5000945;28;20670;-75
2022/03/11 03:08:29;;;;;;;25.48;18.05;;;4.50;96.00;;;;;;5001878;28;20200;-75
2022/03/11 03:10:56;;;;;;;25.95;18.38;;;4.40;96.00;;;;;;4999115;28;20244;-73
2022/03/11 03:13:23;;;;;;;25.05;18.35;;;4.40;96.00;;;;;;5002730;28;20200;-75
2022/03/11 03:15:51;;;;;;;22.35;17.55;;;4.30;96.40;;;;;;4999551;28;20468;-75
2022/03/11 03:18:18;;;;;;;28.08;18.88;;;4.30;96.30;;;;;;5001411;28;20196;-75
2022/03/11 03:20:45;;;;;;;23.05;18.15;;;4.30;96.30;;;;;;4998257;28;20225;-77
2022/03/11 03:23:13;;;;;;;27.17;19.52;;;4.30;96.40;;;;;;4995454;28;20612;-75
2022/03/11 03:25:41;;;;;;;26.73;18.27;;;4.30;96.50;;;;;;4998163;28;20220;-73
2022/03/11 03:28:08;;;;;;;23.33;18.23;;;4.30;96.40;;;;;;5000734;28;20196;-76
2022/03/11 03:30:35;;;;;;;24.48;17.40;;;4.30;96.50;;;;;;5006344;28;20220;-73
2022/03/11 03:33:04;;;;;;;28.50;21.05;;;4.30;96.60;;;;;;5002599;28;20667;-77
2022/03/11 03:35:31;;;;;;;25.25;19.00;;;4.30;96.40;;;;;;5001321;28;20317;-74
2022/03/11 03:37:58;;;;;;;27.48;19.63;;;4.30;96.50;;;;;;4999792;28;20556;-76
2022/03/11 03:40:25;;;;;;;27.17;20.80;;;4.30;96.70;;;;;;5001730;28;20225;-73
2022/03/11 03:42:52;;;;;;;27.75;20.25;;;4.30;96.80;;;;;;5003994;28;20208;-74
2022/03/11 03:45:19;;;;;;;30.67;21.30;;;4.30;96.90;;;;;;4996264;28;20236;-72
2022/03/11 03:47:46;;;;;;;30.58;21.67;;;4.30;96.80;;;;;;5003407;28;20227;-74
2022/03/11 03:50:15;;;;;;;26.20;18.70;;;4.20;96.70;;;;;;4999162;28;20754;-74
2022/03/11 03:52:43;;;;;;;28.35;21.73;;;4.20;96.70;;;;;;4997582;28;20292;-76
2022/03/11 03:55:11;;;;;;;24.05;18.77;;;4.20;96.80;;;;;;5000690;28;20243;-73
2022/03/11 03:57:38;;;;;;;28.25;19.70;;;4.20;97.00;;;;;;4998322;28;20290;-73
2022/03/11 04:00:07;;;;;;;29.05;19.45;;;4.10;97.00;;;;;;4998454;28;20316;-78
2022/03/11 04:02:36;;;;;;;27.00;19.23;;;4.10;97.00;;;;;;5000461;28;20326;-73
2022/03/11 04:05:03;;;;;;;26.63;19.63;;;4.10;97.10;;;;;;5000598;28;20320;-74
2022/03/11 04:07:32;;;;;;;26.83;19.45;;;4.10;97.20;;;;;;4997574;28;20609;-75
2022/03/11 04:09:59;;;;;;;27.92;19.65;;;4.10;97.10;;;;;;5002408;28;20228;-73
2022/03/11 04:12:26;;;;;;;26.75;18.52;;;4.10;97.20;;;;;;5000771;28;20208;-77
2022/03/11 04:14:53;;;;;;;25.50;18.48;;;4.10;97.10;;;;;;5000299;28;20220;-73
2022/03/11 04:17:20;;;;;;;28.13;20.17;;;4.10;97.10;;;;;;5000390;28;20734;-73
2022/03/11 04:19:47;;;;;;;25.65;18.80;;;4.20;97.10;;;;;;5000993;28;20322;-75
2022/03/11 04:22:14;;;;;;;32.60;21.63;;;4.20;97.10;;;;;;5005850;28;20819;-76
2022/03/11 04:24:43;;;;;;;30.85;18.73;;;4.20;97.40;;;;;;5005576;28;20228;-75
2022/03/11 04:27:10;;;;;;;26.52;20.20;;;4.20;97.40;;;;;;5006682;28;20591;-73
2022/03/11 04:29:37;;;;;;;28.02;20.13;;;4.20;97.00;;;;;;5001923;28;20733;-77
2022/03/11 04:32:05;;;;;;;27.70;19.70;;;4.20;97.20;;;;;;5003460;28;20196;-74
2022/03/11 04:34:32;;;;;;;24.25;18.42;;;4.20;97.30;;;;;;5001321;28;20228;-74
2022/03/11 04:36:59;;;;;;;26.38;18.60;;;4.20;97.30;;;;;;5001869;28;20271;-73
2022/03/11 04:39:26;;;;;;;25.92;19.15;;;4.10;97.30;;;;;;4999105;28;20220;-75
2022/03/11 04:41:55;;;;;;;24.88;19.05;;;4.10;97.20;;;;;;5006762;28;20192;-74
2022/03/11 04:44:22;;;;;;;25.73;18.95;;;4.00;97.30;;;;;;5004974;28;20520;-75
2022/03/11 04:46:50;;;;;;;28.73;20.27;;;4.00;97.20;;;;;;5003841;28;20220;-75
2022/03/11 04:49:17;;;;;;;27.67;19.58;;;4.00;97.20;;;;;;5003792;28;20431;-74
2022/03/11 04:51:44;;;;;;;25.65;20.48;;;3.90;97.30;;;;;;5007610;28;20211;-76
2022/03/11 04:54:11;;;;;;;25.92;19.15;;;3.80;97.50;;;;;;5005259;28;20477;-77
2022/03/11 04:56:38;;;;;;;24.95;18.48;;;3.80;97.70;;;;;;5004204;28;20221;-74
2022/03/11 04:59:07;;;;;;;25.95;18.55;;;3.70;97.80;;;;;;5006209;28;20204;-74
2022/03/11 05:01:34;;;;;;;25.02;18.02;;;3.60;97.80;;;;;;5003928;28;20638;-76
2022/03/11 05:04:01;;;;;;;25.45;19.20;;;3.60;97.90;;;;;;5003626;28;20212;-75
2022/03/11 05:06:28;;;;;;;25.95;19.73;;;3.50;97.90;;;;;;5005171;28;20335;-75
2022/03/11 05:08:55;;;;;;;23.17;18.30;;;3.60;97.90;;;;;;5004447;28;20204;-74
2022/03/11 05:11:22;;;;;;;25.48;19.23;;;3.60;98.00;;;;;;5002273;28;20217;-75
2022/03/11 05:13:49;;;;;;;24.58;18.25;;;3.60;97.80;;;;;;5003978;28;20535;-76
2022/03/11 05:16:18;;;;;;;26.42;19.15;;;3.60;97.80;;;;;;5002935;28;20766;-75
2022/03/11 05:18:47;;;;;;;27.42;20.02;;;3.60;97.80;;;;;;5004482;28;21015;-75
2022/03/11 05:21:14;;;;;;;23.08;18.63;;;3.60;97.90;;;;;;5002938;28;20224;-74
2022/03/11 05:23:41;;;;;;;30.55;21.45;;;3.50;98.00;;;;;;5004325;28;20202;-74
2022/03/11 05:26:24;;;;;;;27.10;19.55;;;3.50;98.10;;;;;;5002597;28;20243;-76
2022/03/11 05:28:52;;;;;;;28.33;19.45;;;3.40;98.10;;;;;;5000267;28;20197;-78
2022/03/11 05:31:21;;;;;;;24.80;18.60;;;3.40;98.30;;;;;;5002200;28;20798;-74
2022/03/11 05:33:48;;;;;;;27.85;20.75;;;3.40;98.30;;;;;;4999165;28;20197;-74
2022/03/11 05:36:16;;;;;;;27.88;20.23;;;3.30;98.40;;;;;;5002102;28;20534;-72
2022/03/11 05:38:43;;;;;;;30.08;22.38;;;3.30;98.50;;;;;;5000277;28;20287;-73
2022/03/11 05:41:10;;;;;;;26.70;20.75;;;3.30;98.50;;;;;;4998165;28;20236;-77
2022/03/11 05:43:37;;;;;;;28.23;20.73;;;3.30;98.50;;;;;;4999949;28;20464;-76
2022/03/11 05:46:05;;;;;;;29.38;20.75;;;3.30;98.60;;;;;;5000681;28;20303;-76
2022/03/11 05:48:33;;;;;;;25.55;19.85;;;3.30;98.50;;;;;;5005188;28;20201;-75
2022/03/11 05:51:01;;;;;;;28.40;20.15;;;3.30;98.60;;;;;;4998562;28;20731;-75
2022/03/11 05:53:28;;;;;;;26.13;18.73;;;3.30;98.60;;;;;;5002343;28;20689;-73
2022/03/11 05:55:55;;;;;;;27.30;19.95;;;3.30;98.70;;;;;;5004798;28;20433;-71
2022/03/11 05:58:22;;;;;;;25.90;18.00;;;3.30;98.80;;;;;;5000712;28;20235;-74
2022/03/11 06:00:50;;;;;;;23.13;17.40;;;3.30;98.90;;;;;;5000895;28;20238;-75
2022/03/11 06:03:17;;;;;;;28.90;20.15;;;3.30;98.90;;;;;;4998170;28;20228;-76
2022/03/11 06:05:45;;;;;;;27.30;20.20;;;3.30;99.10;;;;;;5000526;28;20235;-75
2022/03/11 06:08:13;;;;;;;26.13;19.33;;;3.30;99.10;;;;;;4990800;28;20211;-73
2022/03/11 06:10:40;;;;;;;28.02;20.60;;;3.30;99.20;;;;;;4998050;28;20217;-73
2022/03/11 06:13:08;;;;;;;25.67;19.48;;;3.40;99.10;;;;;;4998443;28;20225;-71
2022/03/11 06:15:35;;;;;;;26.90;21.48;;;3.40;99.40;;;;;;4991502;28;20235;-73
2022/03/11 06:18:02;;;;;;;23.67;18.48;;;3.40;99.30;;;;;;4993191;28;20200;-75
2022/03/11 06:20:32;;;;;;;24.50;18.60;;;3.50;99.50;;;;;;4992413;28;20224;-74
2022/03/11 06:23:00;;;;;;;24.05;18.25;;;3.60;99.50;;;;;;4991228;28;20197;-75
2022/03/11 06:25:28;;;;;;;24.90;18.77;;;3.60;99.30;;;;;;4997936;28;20234;-75
2022/03/11 06:27:55;;;;;;;24.10;18.55;;;3.60;99.40;;;;;;4997090;28;20216;-77
2022/03/11 06:30:23;;;;;;;24.00;17.92;;;3.60;99.50;;;;;;4994880;28;20217;-78
2022/03/11 06:32:51;;;;;;;25.63;19.10;;;3.70;99.50;;;;;;4993331;28;20573;-77
2022/03/11 06:35:19;;;;;;;25.27;18.75;;;3.80;99.70;;;;;;4996602;28;20255;-72
2022/03/11 06:37:50;;;;;;;25.17;17.77;;;3.90;99.50;;;;;;4996031;28;21096;-73
2022/03/11 06:40:20;;;;;;;22.75;17.38;;;4.20;99.50;;;;;;4997237;28;20726;-74
2022/03/11 06:42:48;;;;;;;26.10;19.83;;;4.40;99.00;;;;;;4994090;28;20193;-75
2022/03/11 06:45:17;;;;;;;27.20;20.13;;;4.60;98.70;;;;;;4992550;28;20231;-75
2022/03/11 06:47:46;;;;;;;26.65;20.35;;;4.80;98.80;;;;;;4994412;28;20532;-77
2022/03/11 06:50:14;;;;;;;28.30;21.92;;;5.00;98.20;;;;;;4991571;28;20330;-76
2022/03/11 06:52:41;;;;;;;32.33;22.17;;;5.10;98.40;;;;;;4991947;28;20192;-73
2022/03/11 06:55:09;;;;;;;31.10;22.48;;;5.20;98.90;;;;;;4994531;28;20699;-81
2022/03/11 06:57:37;;;;;;;28.80;20.80;;;5.40;98.90;;;;;;5072601;23;20227;-73
2022/03/11 07:00:06;;;;;;;28.17;20.48;;;5.60;98.50;;;;;;5021492;28;20648;-78
2022/03/11 07:02:34;;;;;;;28.52;21.90;;;5.80;98.00;;;;;;5023717;28;20203;-75
2022/03/11 07:05:01;;;;;;;30.10;22.33;;;5.80;98.10;;;;;;5030960;28;21410;-80
2022/03/11 07:07:30;;;;;;;32.75;23.35;;;5.90;98.00;;;;;;5023802;28;20207;-76
2022/03/11 07:09:57;;;;;;;29.20;21.83;;;6.00;98.40;;;;;;5033277;28;20283;-76
2022/03/11 07:12:24;;;;;;;27.95;20.13;;;6.10;98.00;;;;;;5046284;28;20198;-79
2022/03/11 07:14:52;;;;;;;27.85;20.65;;;6.20;97.90;;;;;;5046055;28;20209;-74
2022/03/11 07:17:19;;;;;;;27.98;21.33;;;6.30;97.60;;;;;;5053970;28;20214;-73
2022/03/11 07:19:46;;;;;;;32.03;21.50;;;6.30;97.50;;;;;;5045316;28;20207;-76
2022/03/11 07:22:13;;;;;;;30.45;22.50;;;6.20;97.70;;;;;;5049537;28;20203;-75
2022/03/11 07:24:41;;;;;;;28.02;20.80;;;6.10;97.40;;;;;;5050096;28;20198;-76
2022/03/11 07:27:08;;;;;;;30.05;21.83;;;6.10;97.10;;;;;;5055671;28;20275;-77
2022/03/11 07:29:35;;;;;;;29.08;20.73;;;6.20;97.20;;;;;;5051583;28;20213;-76
2022/03/11 07:32:04;;;;;;;29.38;21.15;;;6.30;97.20;;;;;;5039655;28;20219;-75
2022/03/11 07:34:31;;;;;;;30.17;20.73;;;6.50;97.20;;;;;;5041015;28;20206;-72
2022/03/11 07:36:58;;;;;;;30.88;21.17;;;6.80;96.40;;;;;;5042264;28;20226;-75
2022/03/11 07:39:25;;;;;;;29.17;21.65;;;7.00;96.70;;;;;;5045929;28;20229;-77
2022/03/11 07:41:52;;;;;;;27.23;21.00;;;6.90;95.80;;;;;;5045052;28;20716;-75
2022/03/11 07:44:20;;;;;;;29.35;21.25;;;7.00;96.10;;;;;;5044730;28;20191;-77
2022/03/11 07:46:47;;;;;;;30.50;22.50;;;7.10;95.70;;;;;;5046548;28;20261;-77
2022/03/11 07:49:15;;;;;;;27.98;20.05;;;7.30;95.50;;;;;;5064898;28;20199;-75
2022/03/11 07:51:44;;;;;;;30.80;22.75;;;7.50;95.50;;;;;;5055951;28;20214;-74
2022/03/11 07:54:11;;;;;;;30.05;22.98;;;7.70;95.20;;;;;;5044482;28;20202;-74
2022/03/11 07:56:38;;;;;;;27.98;21.15;;;7.90;95.30;;;;;;5050420;28;20708;-75
2022/03/11 07:59:06;;;;;;;26.67;19.73;;;7.90;94.90;;;;;;5050799;28;20243;-75
2022/03/11 08:01:35;;;;;;;28.77;20.95;;;8.00;94.80;;;;;;5043846;28;20715;-75
2022/03/11 08:04:04;;;;;;;30.98;21.27;;;8.20;94.70;;;;;;5051848;28;20284;-75
2022/03/11 08:06:32;;;;;;;30.98;22.02;;;8.30;94.20;;;;;;5047241;28;20243;-73
2022/03/11 08:08:59;;;;;;;27.42;20.98;;;8.60;94.50;;;;;;5044834;28;20210;-74
2022/03/11 08:11:30;;;;;;;28.77;21.42;;;8.90;93.60;;;;;;5052611;28;20218;-77
2022/03/11 08:13:57;;;;;;;27.98;20.90;;;9.20;93.60;;;;;;5044796;28;20661;-75
2022/03/11 08:16:24;;;;;;;31.05;22.08;;;9.40;93.30;;;;;;5043600;28;20235;-75
2022/03/11 08:18:51;;;;;;;30.48;22.02;;;9.60;92.80;;;;;;5047897;28;21903;-76
2022/03/11 08:21:18;;;;;;;31.00;21.75;;;9.80;92.80;;;;;;5047348;28;20226;-76
2022/03/11 08:23:46;;;;;;;31.60;22.55;;;9.80;92.60;;;;;;5044331;28;20290;-75
2022/03/11 08:26:14;;;;;;;29.77;20.55;;;9.90;92.10;;;;;;5040924;28;20222;-75
2022/03/11 08:28:41;;;;;;;29.98;23.02;;;9.90;92.20;;;;;;5045190;28;20225;-75
2022/03/11 08:31:08;;;;;;;28.27;21.02;;;9.90;92.40;;;;;;5049276;28;20237;-75
2022/03/11 08:33:37;;;;;;;30.95;22.60;;;10.20;92.50;;;;;;5046131;28;20210;-75
2022/03/11 08:36:04;;;;;;;39.53;21.67;;;10.50;92.20;;;;;;5042220;28;20299;-75
2022/03/11 08:38:31;;;;;;;28.33;21.45;;;10.60;92.00;;;;;;5043039;28;20218;-76
2022/03/11 08:41:02;;;;;;;33.13;22.83;;;10.70;91.80;;;;;;5037508;28;20241;-74
2022/03/11 08:43:29;;;;;;;30.23;22.75;;;10.90;91.80;;;;;;5043570;28;20202;-75
2022/03/11 08:45:56;;;;;;;31.83;23.42;;;11.10;91.40;;;;;;5044191;28;20218;-76
2022/03/11 08:48:23;;;;;;;30.33;22.33;;;11.30;91.00;;;;;;5045613;28;20225;-74
2022/03/11 08:50:50;;;;;;;33.83;24.13;;;11.40;90.60;;;;;;5046804;28;20265;-76
2022/03/11 08:53:19;;;;;;;33.15;23.63;;;11.40;90.70;;;;;;5050594;28;20195;-76
2022/03/11 08:55:46;;;;;;;32.00;22.90;;;11.50;90.50;;;;;;5042596;28;20222;-74
2022/03/11 08:58:15;;;;;;;30.90;23.73;;;11.50;91.00;;;;;;5047539;28;20277;-75
2022/03/11 09:00:42;;;;;;;31.48;23.13;;;11.90;90.70;;;;;;5036906;28;20222;-76
2022/03/11 09:03:09;;;;;;;30.88;24.52;;;12.10;90.30;;;;;;5050855;28;20298;-76
2022/03/11 09:05:37;;;;;;;34.35;25.45;;;12.10;90.20;;;;;;5044177;28;20222;-75
2022/03/11 09:08:07;;;;;;;31.48;25.48;;;11.60;89.60;;;;;;5039472;28;20219;-76
2022/03/11 09:10:34;;;;;;;31.48;23.80;;;11.10;90.20;;;;;;5041231;28;20449;-77
2022/03/11 09:13:01;;;;;;;32.88;24.80;;;11.20;90.50;;;;;;5060464;28;20215;-77
2022/03/11 09:15:30;;;;;;;32.83;24.25;;;11.10;90.70;;;;;;5052978;28;20487;-73
2022/03/11 09:17:57;;;;;;;30.58;24.95;;;11.20;90.60;;;;;;5042470;28;20225;-76
2022/03/11 09:20:26;;;;;;;35.65;25.50;;;11.40;90.30;;;;;;5038834;28;20199;-76
2022/03/11 09:22:54;;;;;;;33.80;24.80;;;11.50;90.50;;;;;;5039404;28;20381;-75
2022/03/11 09:25:21;;;;;;;31.90;23.33;;;11.60;90.20;;;;;;5040322;28;20203;-74
2022/03/11 09:27:48;;;;;;;29.77;22.58;;;12.00;90.50;;;;;;5042452;28;20553;-74
2022/03/11 09:30:16;;;;;;;30.73;23.58;;;12.50;90.10;;;;;;5037421;28;20256;-75
2022/03/11 09:32:45;;;;;;;33.58;26.10;;;13.00;90.10;;;;;;5045038;28;20412;-77
2022/03/11 09:35:12;;;;;;;33.05;25.65;;;12.90;89.90;;;;;;5039503;28;20202;-75
2022/03/11 09:37:40;;;;;;;32.10;25.92;;;12.80;89.80;;;;;;5040753;28;20643;-76
2022/03/11 09:40:10;;;;;;;35.00;24.23;;;12.80;88.10;;;;;;5042807;28;20652;-75
2022/03/11 09:42:37;;;;;;;36.30;27.55;;;12.40;89.30;;;;;;5037965;28;20223;-74
2022/03/11 09:45:05;;;;;;;37.92;27.20;;;12.30;90.40;;;;;;5050225;28;20207;-75
2022/03/11 09:47:32;;;;;;;35.33;27.50;;;12.60;89.90;;;;;;5046658;28;20211;-76
2022/03/11 09:50:01;;;;;;;30.05;24.23;;;12.70;90.00;;;;;;5047838;28;20199;-74
2022/03/11 09:52:31;;;;;;;36.05;26.40;;;13.30;90.10;;;;;;5045483;28;20587;-75
2022/03/11 09:54:58;;;;;;;34.40;27.95;;;13.70;88.60;;;;;;5064896;28;20194;-78
2022/03/11 09:57:27;;;;;;;33.22;27.40;;;13.70;87.80;;;;;;5048495;28;20222;-75
2022/03/11 09:59:54;;;;;;;34.28;25.15;;;13.60;88.20;;;;;;5053185;28;20201;-74
2022/03/11 10:02:21;;;;;;;38.40;27.77;;;13.60;89.00;;;;;;5043496;28;20230;-74
2022/03/11 10:04:50;;;;;;;39.20;30.20;;;13.60;88.80;;;;;;5047405;28;20200;-73
2022/03/11 10:07:27;;;;;;;35.55;29.05;;;13.30;89.60;;;;;;5043112;28;20219;-76
2022/03/11 10:09:54;;;;;;;36.97;29.30;;;13.30;89.30;;;;;;5045986;28;20210;-76
2022/03/11 10:12:22;;;;;;;40.33;30.20;;;13.20;89.70;;;;;;5048116;28;20223;-76
2022/03/11 10:15:01;;;;;;;37.08;30.02;;;12.90;89.40;;;;;;5047981;28;20256;-75
2022/03/11 10:17:36;;;;;;;36.80;30.23;;;12.70;89.40;;;;;;5049453;28;20218;-75
2022/03/11 10:20:06;;;;;;;35.17;30.17;;;12.50;90.30;;;;;;5041160;28;20308;-74
2022/03/11 10:22:34;;;;;;;36.28;28.98;;;12.50;90.70;;;;;;5049084;28;20259;-72
2022/03/11 10:25:07;;;;;;;38.90;29.92;;;12.60;90.60;;;;;;5042967;28;20578;-76
2022/03/11 10:27:34;;;;;;;38.55;31.05;;;12.80;90.40;;;;;;5041872;28;20218;-78
2022/03/11 10:30:04;;;;;;;35.15;29.23;;;12.70;90.30;;;;;;5047919;28;20239;-76
2022/03/11 10:32:31;;;;;;;36.00;30.38;;;12.60;89.90;;;;;;5042150;28;20218;-73
2022/03/11 10:35:12;;;;;;;37.97;31.30;;;12.70;89.00;;;;;;5047883;28;20472;-76
2022/03/11 10:37:56;;;;;;;40.80;31.73;;;12.50;90.00;;;;;;5059848;28;20215;-77
2022/03/11 10:40:23;;;;;;;41.00;31.92;;;12.60;89.90;;;;;;5051810;28;20286;-74
2022/03/11 10:42:50;;;;;;;39.80;31.77;;;12.40;89.60;;;;;;5047841;28;20222;-76
2022/03/11 10:45:17;;;;;;;44.97;33.75;;;12.50;88.50;;;;;;5047455;28;20222;-74
2022/03/11 10:47:46;;;;;;;39.13;32.35;;;12.40;88.50;;;;;;5045202;28;20229;-75
2022/03/11 10:50:16;;;;;;;42.47;33.67;;;12.30;88.60;;;;;;5042421;28;20873;-76
2022/03/11 10:52:46;;;;;;;43.78;33.47;;;12.30;89.50;;;;;;5044927;28;20725;-74
2022/03/11 10:55:21;;;;;;;37.53;30.63;;;12.30;88.40;;;;;;5048406;28;20195;-76
2022/03/11 10:57:48;;;;;;;38.92;32.67;;;12.30;88.20;;;;;;5043683;28;20626;-74
2022/03/11 11:00:24;;;;;;;41.97;32.60;;;12.30;89.00;;;;;;5044177;28;20195;-75
2022/03/11 11:02:53;;;;;;;38.97;31.85;;;12.30;89.00;;;;;;5045604;28;20287;-77
2022/03/11 11:05:21;;;;;;;37.67;31.73;;;12.30;89.00;;;;;;5044646;28;20202;-77
2022/03/11 11:07:50;;;;;;;41.03;32.95;;;12.20;88.40;;;;;;5046798;28;20234;-74
2022/03/11 11:10:18;;;;;;;44.80;31.65;;;12.30;88.30;;;;;;5040998;28;20230;-75
2022/03/11 11:12:46;;;;;;;41.08;32.58;;;12.50;88.50;;;;;;5040468;28;20218;-77
2022/03/11 11:15:15;;;;;;;42.22;33.45;;;12.50;87.60;;;;;;5045649;28;20205;-75
2022/03/11 11:17:44;;;;;;;42.83;32.45;;;12.50;88.50;;;;;;5042951;28;20774;-75
2022/03/11 11:20:19;;;;;;;40.38;33.25;;;12.50;87.90;;;;;;5049794;28;20215;-77
2022/03/11 11:22:47;;;;;;;43.03;33.45;;;12.50;87.70;;;;;;5052903;28;20238;-74
2022/03/11 11:25:18;;;;;;;42.55;33.72;;;12.60;88.10;;;;;;5039160;28;20195;-79
2022/03/11 11:27:45;;;;;;;38.60;31.63;;;12.70;87.60;;;;;;5049573;28;20226;-74
2022/03/11 11:30:17;;;;;;;40.67;32.47;;;12.80;87.30;;;;;;5045348;28;20588;-73
2022/03/11 11:32:44;;;;;;;41.35;33.17;;;12.80;87.00;;;;;;5046008;28;20230;-75
2022/03/11 11:35:25;;;;;;;38.08;32.15;;;12.70;86.80;;;;;;5051753;28;20283;-74
2022/03/11 11:37:52;;;;;;;41.63;32.63;;;12.60;87.00;;;;;;5044385;28;20318;-74
2022/03/11 11:40:23;;;;;;;38.22;31.80;;;12.60;87.20;;;;;;5057433;28;20206;-76
2022/03/11 11:43:27;;;;;;;42.65;34.40;;;12.70;87.50;;;;;;5052979;28;20223;-75
2022/03/11 11:46:11;;;;;;;43.38;32.85;;;12.50;87.40;;;;;;5053300;28;20248;-76
2022/03/11 11:49:16;;;;;;;40.20;31.85;;;12.30;87.70;;;;;;5052835;28;20257;-75
2022/03/11 11:52:08;;;;;;;40.72;32.88;;;12.30;87.80;;;;;;5050556;28;20222;-75
2022/03/11 11:54:43;;;;;;;40.33;31.50;;;12.30;88.00;;;;;;5060781;28;20187;-72
2022/03/11 11:57:25;;;;;;;38.78;32.00;;;12.20;87.80;;;;;;5052646;28;20396;-78
2022/03/11 11:59:53;;;;;;;39.35;32.35;;;12.30;88.20;;;;;;5046978;28;20219;-74
2022/03/11 12:02:38;;;;;;;38.50;31.90;;;12.20;88.50;;;;;;5048108;28;20226;-74
2022/03/11 12:05:42;;;;;;;41.05;32.92;;;12.20;88.50;;;;;;5052660;28;20681;-72
2022/03/11 12:08:10;;;;;;;41.35;32.17;;;12.20;87.80;;;;;;5029063;28;20607;-75
2022/03/11 12:10:51;;;;;;;41.58;32.28;;;12.10;87.50;;;;;;5047867;28;20935;-74
2022/03/11 12:13:34;;;;;;;37.88;31.27;;;12.10;88.40;;;;;;5042931;28;20254;-73
2022/03/11 12:16:02;;;;;;;39.70;32.08;;;12.10;88.40;;;;;;5043941;28;20203;-77
2022/03/11 12:18:37;;;;;;;38.10;31.63;;;12.10;89.20;;;;;;5043467;28;20351;-78
2022/03/11 12:21:05;;;;;;;39.88;31.30;;;12.20;89.30;;;;;;5044617;28;20695;-75
2022/03/11 12:23:36;;;;;;;39.40;31.90;;;12.10;89.00;;;;;;5044091;28;20237;-74
2022/03/11 12:26:09;;;;;;;36.92;29.95;;;12.10;88.80;;;;;;5044971;28;20206;-75
2022/03/11 12:28:41;;;;;;;36.83;30.17;;;12.20;89.80;;;;;;5042767;28;20218;-76
2022/03/11 12:31:09;;;;;;;37.38;30.88;;;12.10;89.20;;;;;;5047370;28;20203;-74
2022/03/11 12:33:39;;;;;;;39.15;32.08;;;12.10;89.70;;;;;;5044604;28;20229;-73
2022/03/11 12:36:08;;;;;;;39.63;30.40;;;12.20;89.10;;;;;;5042158;28;20214;-74
2022/03/11 12:38:37;;;;;;;36.78;29.77;;;12.20;89.30;;;;;;5042692;28;20234;-74
2022/03/11 12:41:07;;;;;;;43.30;31.15;;;12.30;88.10;;;;;;5039851;28;20199;-77
2022/03/11 12:43:35;;;;;;;38.97;30.95;;;12.30;88.20;;;;;;5040851;28;20206;-76